createdAt,value
2019-04-25T00:02:32.507Z,18.20
2019-04-25T00:05:03.168Z,18.27
2019-04-25T00:07:32.838Z,18.07
2019-04-25T00:10:02.185Z,17.60
2019-04-25T00:12:32.758Z,18.07
2019-04-25T00:15:01.815Z,17.47
2019-04-25T00:17:31.468Z,18.37
2019-04-25T00:20:01.839Z,17.60
2019-04-25T00:22:58.462Z,16.57
2019-04-25T00:25:46.911Z,17.57
2019-04-25T00:28:15.104Z,16.47
2019-04-25T00:30:44.677Z,18.73
2019-04-25T00:33:13.641Z,16.70
2019-04-25T00:35:44.601Z,16.70
2019-04-25T00:38:14.299Z,17.13
2019-04-25T00:40:46.400Z,17.47
2019-04-25T00:43:16.448Z,16.83
2019-04-25T00:45:45.742Z,16.80
2019-04-25T00:48:15.620Z,18.13
2019-04-25T00:50:44.618Z,17.17
2019-04-25T00:53:13.446Z,17.33
2019-04-25T00:55:44.266Z,17.37
2019-04-25T00:58:43.290Z,18.67
2019-04-25T01:01:34.955Z,17.50
2019-04-25T01:04:06.562Z,18.20
2019-04-25T01:06:35.480Z,18.57
2019-04-25T01:09:05.723Z,19.63
2019-04-25T01:11:35.133Z,19.20
2019-04-25T01:14:04.070Z,18.77
2019-04-25T01:16:32.942Z,18.50
2019-04-25T01:19:03.492Z,18.53
2019-04-25T01:21:33.998Z,19.33
2019-04-25T01:24:04.302Z,18.73
2019-04-25T01:26:33.993Z,19.20
2019-04-25T01:29:05.700Z,18.50
2019-04-25T01:31:39.052Z,19.70
2019-04-25T01:34:09.814Z,18.67
2019-04-25T01:37:18.168Z,18.63
2019-04-25T01:39:57.289Z,18.83
2019-04-25T01:42:58.674Z,19.60
2019-04-25T01:45:30.025Z,19.17
2019-04-25T01:48:00.792Z,20.00
2019-04-25T01:50:31.130Z,19.30
2019-04-25T01:53:00.330Z,20.20
2019-04-25T01:55:33.547Z,20.57
2019-04-25T01:58:03.869Z,21.40
2019-04-25T02:00:39.666Z,20.43
2019-04-25T02:03:08.790Z,20.47
2019-04-25T02:05:38.714Z,20.97
2019-04-25T02:08:07.733Z,20.43
2019-04-25T02:10:37.762Z,22.07
2019-04-25T02:13:08.507Z,21.07
2019-04-25T02:15:37.436Z,20.27
2019-04-25T02:18:09.382Z,20.77
2019-04-25T02:20:41.602Z,20.67
2019-04-25T02:23:10.488Z,20.27
2019-04-25T02:25:40.471Z,20.63
2019-04-25T02:28:09.467Z,19.33
2019-04-25T02:30:39.519Z,20.10
2019-04-25T02:33:09.260Z,19.77
2019-04-25T02:35:43.156Z,19.63
2019-04-25T02:38:14.703Z,18.90
2019-04-25T02:40:45.229Z,19.70
2019-04-25T02:43:14.297Z,19.47
2019-04-25T02:46:20.706Z,21.63
2019-04-25T02:49:32.763Z,20.30
2019-04-25T02:52:06.900Z,20.70
2019-04-25T02:54:34.853Z,19.87
2019-04-25T02:57:08.342Z,20.27
2019-04-25T02:59:37.497Z,20.17
2019-04-25T03:02:11.303Z,20.97
2019-04-25T03:04:44.216Z,20.60
2019-04-25T03:07:16.748Z,19.23
2019-04-25T03:09:45.156Z,19.90
2019-04-25T03:12:26.502Z,20.00
2019-04-25T03:14:45.023Z,20.87
2019-04-25T03:17:14.494Z,20.13
2019-04-25T03:20:08.894Z,19.87
2019-04-25T03:22:34.970Z,19.23
2019-04-25T03:25:07.049Z,18.77
2019-04-25T03:27:34.551Z,18.60
2019-04-25T03:30:04.498Z,20.63
2019-04-25T03:32:35.532Z,18.97
2019-04-25T03:35:05.847Z,19.00
2019-04-25T03:37:36.731Z,18.97
2019-04-25T03:40:06.576Z,18.67
2019-04-25T03:42:36.244Z,18.37
2019-04-25T03:45:06.076Z,18.70
2019-04-25T03:47:35.055Z,18.87
2019-04-25T03:50:08.174Z,18.77
2019-04-25T03:52:37.435Z,19.27
2019-04-25T03:55:07.699Z,17.57
2019-04-25T03:57:37.383Z,17.60
2019-04-25T04:00:07.431Z,18.70
2019-04-25T04:02:38.095Z,19.00
2019-04-25T04:05:08.650Z,17.93
2019-04-25T04:07:40.961Z,18.57
2019-04-25T04:10:15.179Z,18.20
2019-04-25T04:12:44.441Z,19.10
2019-04-25T04:15:14.851Z,19.77
2019-04-25T04:18:05.927Z,19.20
2019-04-25T04:20:55.997Z,19.70
2019-04-25T04:23:33.524Z,18.97
2019-04-25T04:26:06.253Z,19.10
2019-04-25T04:28:35.237Z,18.17
2019-04-25T04:31:04.281Z,17.40
2019-04-25T04:33:34.626Z,17.27
2019-04-25T04:36:03.940Z,17.80
2019-04-25T04:38:34.320Z,17.50
2019-04-25T04:41:03.985Z,17.97
2019-04-25T04:43:36.135Z,19.30
2019-04-25T04:46:06.606Z,17.00
2019-04-25T04:48:35.543Z,17.77
2019-04-25T04:51:08.939Z,16.37
2019-04-25T04:53:37.958Z,17.00
2019-04-25T04:56:07.012Z,15.93
2019-04-25T04:58:35.971Z,16.13
2019-04-25T05:01:06.066Z,15.33
2019-04-25T05:04:03.995Z,15.20
2019-04-25T05:06:40.551Z,14.87
2019-04-25T05:09:16.673Z,14.93
2019-04-25T05:11:47.561Z,15.57
2019-04-25T05:14:17.331Z,15.90
2019-04-25T05:16:53.829Z,15.63
2019-04-25T05:19:23.861Z,16.07
2019-04-25T05:21:55.969Z,15.50
2019-04-25T05:24:26.529Z,15.57
2019-04-25T05:26:57.275Z,16.03
2019-04-25T05:29:26.704Z,14.43
2019-04-25T05:31:56.080Z,14.50
2019-04-25T05:34:27.178Z,14.50
2019-04-25T05:36:56.095Z,15.07
2019-04-25T05:39:25.139Z,14.67
2019-04-25T05:42:22.573Z,15.77
2019-04-25T05:44:54.094Z,15.97
2019-04-25T05:47:26.092Z,16.33
2019-04-25T05:49:54.201Z,15.23
2019-04-25T05:52:24.317Z,15.03
2019-04-25T05:54:54.073Z,14.73
2019-04-25T05:57:24.986Z,15.73
2019-04-25T05:59:55.125Z,14.43
2019-04-25T06:02:25.374Z,13.80
2019-04-25T06:04:57.760Z,13.27
2019-04-25T06:07:26.768Z,14.00
2019-04-25T06:10:14.886Z,13.17
2019-04-25T06:13:03.484Z,12.13
2019-04-25T06:15:33.308Z,11.70
2019-04-25T06:18:29.757Z,11.67
2019-04-25T06:20:58.745Z,12.47
2019-04-25T06:23:46.122Z,10.87
2019-04-25T06:26:26.359Z,11.40
2019-04-25T06:28:52.265Z,11.30
2019-04-25T06:31:19.741Z,11.03
2019-04-25T06:33:49.049Z,12.00
2019-04-25T06:36:20.973Z,10.20
2019-04-25T06:38:50.071Z,10.20
2019-04-25T06:41:19.117Z,10.90
2019-04-25T06:43:51.159Z,11.13
2019-04-25T06:46:39.658Z,10.57
2019-04-25T06:49:26.252Z,10.07
2019-04-25T06:51:57.630Z,10.20
2019-04-25T06:54:27.235Z,10.40
2019-04-25T06:56:58.917Z,11.57
2019-04-25T06:59:28.840Z,10.23
2019-04-25T07:01:57.968Z,10.23
2019-04-25T07:04:27.938Z,10.77
2019-04-25T07:07:09.697Z,10.90
2019-04-25T07:09:30.047Z,10.83
2019-04-25T07:12:00.040Z,11.23
2019-04-25T07:14:30.276Z,10.60
2019-04-25T07:17:01.767Z,10.97
2019-04-25T07:19:33.940Z,10.57
2019-04-25T07:22:03.899Z,10.27
2019-04-25T07:24:35.054Z,10.80
2019-04-25T07:27:26.405Z,11.87
2019-04-25T07:30:27.230Z,11.33
2019-04-25T07:32:54.924Z,11.23
2019-04-25T07:35:25.261Z,11.00
2019-04-25T07:37:55.671Z,10.30
2019-04-25T07:40:25.607Z,9.50
2019-04-25T07:42:54.759Z,11.53
2019-04-25T07:45:27.427Z,10.60
2019-04-25T07:47:56.546Z,10.13
2019-04-25T07:50:26.846Z,10.90
2019-04-25T07:52:57.148Z,10.37
2019-04-25T07:55:27.561Z,10.23
2019-04-25T07:57:56.837Z,10.33
2019-04-25T08:00:30.059Z,10.43
2019-04-25T08:02:59.030Z,11.07
2019-04-25T08:05:28.025Z,9.73
2019-04-25T08:07:56.980Z,10.73
2019-04-25T08:10:27.986Z,10.20
2019-04-25T08:12:57.218Z,10.47
2019-04-25T08:15:36.257Z,10.70
2019-04-25T08:18:09.151Z,9.97
2019-04-25T08:20:38.131Z,9.27
2019-04-25T08:23:07.429Z,9.40
2019-04-25T08:25:39.267Z,8.93
2019-04-25T08:28:07.008Z,9.50
2019-04-25T08:30:36.686Z,8.83
2019-04-25T08:33:10.285Z,8.67
2019-04-25T08:36:03.043Z,9.37
2019-04-25T08:38:14.940Z,9.93
2019-04-25T08:40:44.213Z,9.53
2019-04-25T08:43:14.736Z,9.13
2019-04-25T08:45:44.289Z,9.17
2019-04-25T08:48:15.106Z,7.67
2019-04-25T08:51:06.448Z,7.63
2019-04-25T08:53:45.425Z,7.33
2019-04-25T08:56:21.726Z,8.17
2019-04-25T08:59:14.178Z,6.67
2019-04-25T09:01:53.750Z,6.83
2019-04-25T09:04:28.094Z,6.60
2019-04-25T09:06:57.227Z,6.67
2019-04-25T09:09:26.237Z,6.37
2019-04-25T09:11:55.164Z,5.20
2019-04-25T09:14:25.633Z,5.20
2019-04-25T09:16:55.617Z,4.80
2019-04-25T09:19:24.568Z,5.13
2019-04-25T09:21:53.745Z,4.93
2019-04-25T09:24:24.582Z,4.73
2019-04-25T09:26:56.177Z,5.00
2019-04-25T09:29:25.269Z,5.50
2019-04-25T09:31:54.218Z,5.30
2019-04-25T09:34:23.801Z,4.83
2019-04-25T09:36:53.710Z,5.20
2019-04-25T09:39:33.789Z,5.73
2019-04-25T09:42:04.374Z,4.77
2019-04-25T09:44:42.105Z,5.17
2019-04-25T09:47:13.737Z,5.50
2019-04-25T09:49:46.686Z,4.93
2019-04-25T09:52:18.864Z,4.80
2019-04-25T09:55:06.931Z,4.73
2019-04-25T09:58:06.475Z,5.00
2019-04-25T10:00:40.704Z,5.23
2019-04-25T10:03:09.769Z,4.63
2019-04-25T10:05:40.432Z,4.53
2019-04-25T10:08:09.373Z,4.43
2019-04-25T10:10:39.074Z,5.07
2019-04-25T10:13:09.839Z,4.37
2019-04-25T10:16:12.889Z,5.17
2019-04-25T10:18:46.277Z,4.73
2019-04-25T10:21:17.721Z,4.63
2019-04-25T10:23:46.886Z,5.03
2019-04-25T10:26:15.832Z,5.60
2019-04-25T10:28:45.280Z,4.77
2019-04-25T10:31:15.428Z,5.70
2019-04-25T10:33:47.061Z,5.10
2019-04-25T10:36:16.028Z,5.00
2019-04-25T10:39:01.483Z,5.13
2019-04-25T10:41:17.652Z,4.47
2019-04-25T10:43:46.793Z,4.30
2019-04-25T10:46:17.179Z,4.57
2019-04-25T10:48:46.131Z,4.63
2019-04-25T10:51:18.155Z,4.40
2019-04-25T10:53:47.328Z,4.33
2019-04-25T10:56:16.346Z,4.77
2019-04-25T10:58:46.658Z,4.27
2019-04-25T11:01:15.772Z,4.27
2019-04-25T11:04:04.698Z,5.13
2019-04-25T11:06:33.849Z,4.07
2019-04-25T11:09:03.478Z,4.03
2019-04-25T11:11:41.564Z,4.40
2019-04-25T11:14:10.717Z,4.37
2019-04-25T11:16:39.654Z,4.00
2019-04-25T11:19:08.636Z,4.00
2019-04-25T11:21:38.645Z,4.33
2019-04-25T11:24:09.088Z,3.53
2019-04-25T11:26:38.155Z,3.80
2019-04-25T11:29:07.201Z,3.57
2019-04-25T11:31:41.043Z,4.40
2019-04-25T11:34:10.872Z,3.83
2019-04-25T11:36:40.119Z,3.10
2019-04-25T11:39:30.584Z,3.30
2019-04-25T11:41:59.516Z,3.70
2019-04-25T11:44:29.967Z,3.27
2019-04-25T11:46:58.916Z,3.40
2019-04-25T11:49:29.774Z,3.47
2019-04-25T11:52:00.101Z,3.50
2019-04-25T11:54:29.071Z,3.00
2019-04-25T11:56:58.064Z,4.03
2019-04-25T11:59:27.043Z,4.13
2019-04-25T12:01:57.355Z,3.33
2019-04-25T12:04:26.562Z,3.50
2019-04-25T12:06:56.887Z,3.07
2019-04-25T12:09:25.870Z,2.97
2019-04-25T12:11:58.264Z,3.40
2019-04-25T12:14:27.168Z,3.37
2019-04-25T12:16:57.253Z,3.20
2019-04-25T12:19:34.924Z,4.07
2019-04-25T12:21:58.286Z,3.60
2019-04-25T12:24:27.442Z,3.43
2019-04-25T12:26:57.437Z,3.63
2019-04-25T12:29:26.549Z,3.53
2019-04-25T12:31:56.350Z,3.83
2019-04-25T12:34:28.574Z,3.30
2019-04-25T12:36:57.588Z,4.20
2019-04-25T12:39:26.716Z,3.50
2019-04-25T12:41:57.250Z,4.07
2019-04-25T12:44:46.267Z,3.87
2019-04-25T12:47:20.146Z,4.10
2019-04-25T12:49:51.262Z,3.67
2019-04-25T12:52:20.293Z,3.70
2019-04-25T12:54:49.285Z,3.53
2019-04-25T12:57:18.717Z,3.50
2019-04-25T12:59:47.664Z,3.60
2019-04-25T13:02:16.699Z,3.27
2019-04-25T13:04:45.740Z,3.53
2019-04-25T13:07:17.848Z,3.80
2019-04-25T13:09:47.862Z,3.37
2019-04-25T13:12:19.973Z,3.63
2019-04-25T13:14:50.533Z,4.33
2019-04-25T13:17:19.469Z,4.30
2019-04-25T13:19:48.635Z,4.27
2019-04-25T13:22:18.309Z,4.20
2019-04-25T13:24:47.291Z,3.70
2019-04-25T13:27:41.541Z,4.03
2019-04-25T13:30:24.156Z,4.93
2019-04-25T13:33:07.105Z,3.67
2019-04-25T13:35:58.100Z,3.97
2019-04-25T13:38:27.169Z,3.97
2019-04-25T13:40:58.256Z,4.73
2019-04-25T13:43:27.545Z,4.20
2019-04-25T13:45:58.374Z,4.83
2019-04-25T13:48:28.034Z,4.60
2019-04-25T13:50:58.883Z,5.07
2019-04-25T13:53:28.014Z,4.50
2019-04-25T13:55:57.241Z,4.47
2019-04-25T13:58:26.944Z,4.93
2019-04-25T14:00:58.904Z,5.00
2019-04-25T14:03:27.946Z,5.20
2019-04-25T14:05:58.909Z,5.13
2019-04-25T14:08:28.033Z,4.60
2019-04-25T14:11:01.434Z,5.53
2019-04-25T14:13:32.221Z,4.90
2019-04-25T14:16:28.131Z,4.30
2019-04-25T14:19:29.462Z,4.90
2019-04-25T14:22:00.512Z,4.43
2019-04-25T14:24:32.184Z,4.57
2019-04-25T14:27:01.571Z,4.77
2019-04-25T14:29:31.594Z,5.03
2019-04-25T14:32:04.665Z,4.70
2019-04-25T14:34:33.862Z,4.97
2019-04-25T14:37:13.321Z,5.13
2019-04-25T14:39:42.266Z,5.60
2019-04-25T14:42:11.440Z,4.50
2019-04-25T14:44:41.463Z,4.60
2019-04-25T14:47:10.637Z,4.93
2019-04-25T14:49:39.625Z,5.10
2019-04-25T14:52:09.787Z,6.63
2019-04-25T14:54:48.347Z,4.33
2019-04-25T14:57:26.125Z,4.50
2019-04-25T14:59:55.240Z,4.40
2019-04-25T15:02:25.855Z,4.73
2019-04-25T15:04:59.187Z,4.73
2019-04-25T15:07:29.204Z,3.90
2019-04-25T15:09:58.099Z,4.60
2019-04-25T15:12:27.338Z,4.50
2019-04-25T15:14:56.285Z,4.23
2019-04-25T15:17:26.369Z,4.80
2019-04-25T15:19:55.657Z,5.20
2019-04-25T15:22:25.587Z,4.60
2019-04-25T15:24:57.232Z,4.03
2019-04-25T15:27:29.456Z,4.47
2019-04-25T15:29:58.503Z,4.23
2019-04-25T15:32:32.636Z,3.77
2019-04-25T15:35:04.308Z,5.53
2019-04-25T15:37:49.133Z,3.83
2019-04-25T15:40:26.374Z,3.20
2019-04-25T15:43:20.251Z,3.93
2019-04-25T15:46:00.688Z,3.83
2019-04-25T15:48:29.846Z,3.60
2019-04-25T15:50:58.756Z,3.70
2019-04-25T15:53:28.478Z,3.03
2019-04-25T15:55:58.243Z,3.17
2019-04-25T15:58:27.640Z,3.50
2019-04-25T16:00:56.962Z,3.07
2019-04-25T16:03:28.185Z,3.00
2019-04-25T16:05:57.454Z,2.80
2019-04-25T16:08:26.640Z,2.50
2019-04-25T16:10:56.543Z,2.33
2019-04-25T16:13:25.890Z,2.60
2019-04-25T16:15:55.961Z,3.03
2019-04-25T16:18:24.885Z,3.00
2019-04-25T16:20:55.057Z,2.60
2019-04-25T16:23:29.044Z,3.03
2019-04-25T16:26:01.392Z,4.60
2019-04-25T16:28:30.498Z,3.80
2019-04-25T16:30:59.860Z,3.33
2019-04-25T16:33:30.481Z,3.40
2019-04-25T16:35:59.546Z,3.60
2019-04-25T16:38:31.293Z,3.27
2019-04-25T16:41:00.495Z,4.20
2019-04-25T16:43:32.279Z,4.00
2019-04-25T16:46:01.396Z,3.67
2019-04-25T16:48:31.643Z,3.13
2019-04-25T16:51:01.012Z,4.20
2019-04-25T16:53:32.672Z,3.50
2019-04-25T16:56:01.896Z,4.00
2019-04-25T16:58:30.959Z,3.13
2019-04-25T17:01:07.046Z,3.67
2019-04-25T17:03:36.137Z,3.70
2019-04-25T17:06:05.759Z,3.77
2019-04-25T17:08:35.788Z,4.27
2019-04-25T17:11:04.786Z,3.87
2019-04-25T17:13:37.901Z,4.23
2019-04-25T17:16:34.726Z,3.73
2019-04-25T17:19:11.306Z,4.13
2019-04-25T17:21:41.656Z,4.13
2019-04-25T17:24:10.552Z,4.60
2019-04-25T17:26:39.550Z,3.47
2019-04-25T17:29:11.992Z,4.47
2019-04-25T17:32:06.183Z,4.60
2019-04-25T17:35:04.306Z,5.07
2019-04-25T17:37:43.202Z,6.23
2019-04-25T17:40:16.814Z,8.23
2019-04-25T17:42:45.668Z,11.00
2019-04-25T17:45:19.547Z,13.30
2019-04-25T17:47:54.710Z,19.30
2019-04-25T17:50:19.230Z,15.30
2019-04-25T17:52:48.233Z,10.37
2019-04-25T17:55:17.260Z,10.53
2019-04-25T17:57:46.411Z,17.73
2019-04-25T18:00:24.379Z,13.73
2019-04-25T18:02:58.926Z,13.00
2019-04-25T18:05:23.786Z,10.10
2019-04-25T18:07:52.804Z,26.50
2019-04-25T18:10:21.781Z,19.27
2019-04-25T18:12:53.889Z,13.50
2019-04-25T18:15:35.323Z,21.70
2019-04-25T18:18:09.304Z,20.10
2019-04-25T18:20:40.915Z,14.23
2019-04-25T18:23:41.881Z,27.30
2019-04-25T18:26:30.061Z,29.57
2019-04-25T18:29:02.992Z,37.53
2019-04-25T18:31:31.942Z,32.30
2019-04-25T18:34:03.897Z,24.63
2019-04-25T18:36:58.761Z,30.23
2019-04-25T18:39:32.321Z,14.23
2019-04-25T18:42:09.516Z,16.83
2019-04-25T18:44:38.720Z,13.80
2019-04-25T18:47:07.751Z,15.27
2019-04-25T18:49:37.639Z,17.80
2019-04-25T18:52:15.669Z,25.17
2019-04-25T18:54:51.763Z,33.73
2019-04-25T18:57:27.532Z,27.93
2019-04-25T19:00:15.550Z,29.00
2019-04-25T19:03:22.539Z,33.93
2019-04-25T19:06:03.075Z,15.70
2019-04-25T19:08:35.018Z,20.00
2019-04-25T19:11:04.916Z,13.33
2019-04-25T19:13:34.032Z,12.63
2019-04-25T19:16:03.222Z,10.97
2019-04-25T19:18:34.261Z,12.30
2019-04-25T19:21:03.424Z,12.63
2019-04-25T19:23:34.844Z,12.97
2019-04-25T19:26:03.889Z,13.50
2019-04-25T19:28:32.969Z,15.47
2019-04-25T19:31:04.952Z,16.77
2019-04-25T19:33:35.927Z,26.43
2019-04-25T19:36:04.646Z,110.53
2019-04-25T19:38:36.904Z,31.80
2019-04-25T19:41:17.063Z,29.37
2019-04-25T19:44:08.090Z,23.10
2019-04-25T19:46:39.037Z,19.30
2019-04-25T19:49:08.544Z,12.23
2019-04-25T19:51:37.625Z,13.80
2019-04-25T19:54:09.984Z,11.60
2019-04-25T19:56:39.852Z,13.37
2019-04-25T19:59:09.236Z,15.63
2019-04-25T20:01:38.145Z,14.87
2019-04-25T20:04:26.244Z,13.37
2019-04-25T20:07:25.909Z,15.23
2019-04-25T20:10:14.626Z,13.40
2019-04-25T20:12:50.584Z,12.20
2019-04-25T20:15:19.002Z,12.47
2019-04-25T20:17:52.611Z,10.03
2019-04-25T20:20:21.947Z,11.60
2019-04-25T20:22:52.284Z,13.87
2019-04-25T20:25:21.773Z,14.80
2019-04-25T20:27:50.954Z,21.13
2019-04-25T20:30:20.160Z,20.47
2019-04-25T20:32:49.358Z,20.27
2019-04-25T20:35:18.442Z,15.60
2019-04-25T20:37:47.510Z,13.70
2019-04-25T20:40:17.766Z,10.63
2019-04-25T20:42:48.050Z,8.60
2019-04-25T20:45:17.387Z,11.07
2019-04-25T20:47:52.113Z,11.17
2019-04-25T20:50:21.321Z,11.17
2019-04-25T20:52:50.621Z,8.83
2019-04-25T20:55:23.015Z,9.87
2019-04-25T20:57:53.274Z,11.67
2019-04-25T21:00:40.063Z,9.47
2019-04-25T21:03:09.492Z,9.60
2019-04-25T21:05:38.601Z,10.23
2019-04-25T21:08:07.674Z,11.60
2019-04-25T21:10:36.929Z,10.50
2019-04-25T21:13:07.603Z,11.90
2019-04-25T21:15:54.611Z,12.73
2019-04-25T21:18:34.061Z,10.37
2019-04-25T21:21:03.178Z,11.50
2019-04-25T21:23:35.881Z,12.47
2019-04-25T21:26:05.214Z,12.13
2019-04-25T21:28:34.619Z,11.43
2019-04-25T21:31:03.857Z,10.40
2019-04-25T21:33:33.292Z,10.83
2019-04-25T21:36:03.203Z,10.80
2019-04-25T21:38:32.935Z,14.50
2019-04-25T21:41:34.981Z,11.27
2019-04-25T21:44:08.156Z,11.03
2019-04-25T21:46:38.002Z,10.47
2019-04-25T21:49:07.663Z,9.90
2019-04-25T21:51:36.655Z,10.73
2019-04-25T21:54:07.914Z,10.33
2019-04-25T21:56:37.755Z,10.80
2019-04-25T21:59:08.252Z,9.07
2019-04-25T22:01:39.548Z,9.30
2019-04-25T22:04:08.473Z,10.00
2019-04-25T22:06:37.869Z,9.97
2019-04-25T22:09:10.075Z,11.23
2019-04-25T22:11:39.154Z,11.47
2019-04-25T22:14:08.453Z,11.90
2019-04-25T22:16:37.899Z,9.80
2019-04-25T22:19:07.956Z,10.97
2019-04-25T22:21:38.449Z,15.13
2019-04-25T22:24:12.749Z,12.93
2019-04-25T22:26:38.665Z,15.13
2019-04-25T22:29:08.060Z,14.67
2019-04-25T22:31:59.339Z,16.10
2019-04-25T22:34:36.760Z,12.83
2019-04-25T22:37:06.244Z,11.60
2019-04-25T22:39:35.373Z,11.13
2019-04-25T22:42:05.832Z,11.20
2019-04-25T22:44:37.798Z,10.37
2019-04-25T22:47:07.050Z,14.40
2019-04-25T22:49:36.063Z,15.03
2019-04-25T22:52:05.405Z,15.93
2019-04-25T22:54:34.379Z,14.00
2019-04-25T22:57:04.205Z,9.93
2019-04-25T22:59:33.725Z,13.03
2019-04-25T23:02:13.075Z,12.43
2019-04-25T23:05:15.770Z,13.60
2019-04-25T23:07:44.248Z,13.23
2019-04-25T23:10:13.762Z,14.73
2019-04-25T23:12:43.214Z,14.00
2019-04-25T23:15:13.035Z,12.73
2019-04-25T23:17:42.140Z,10.47
2019-04-25T23:20:11.759Z,10.03
2019-04-25T23:22:40.838Z,11.10
2019-04-25T23:25:11.998Z,14.33
2019-04-25T23:28:09.784Z,12.33
2019-04-25T23:30:58.993Z,15.80
2019-04-25T23:33:28.002Z,17.13
2019-04-25T23:35:57.239Z,16.10
2019-04-25T23:38:26.414Z,13.63
2019-04-25T23:40:55.453Z,13.33
2019-04-25T23:43:25.637Z,12.83
2019-04-25T23:45:54.555Z,13.40
2019-04-25T23:48:23.987Z,13.30
2019-04-25T23:50:53.725Z,13.83
2019-04-25T23:53:25.423Z,14.10
2019-04-25T23:55:54.355Z,14.07
2019-04-25T23:58:23.491Z,14.50
